Csl Tecumseh — C6ZJ6 — position and weather

sailwx.info

Track history (hours):
 
Tides and Currents Weather Stations Pressure Air Temp Water Temp Dewpoint Dewpoint Depression Visibility Wind Speed Wind Dir Waves Ship Positions

Csl Tecumseh

Last reported at 2018-Jan-18 13:58 UTC. Time now 2018-Jan-18 14:15 UTC.
Position N 50°37' W 127°09'.

Length 229 m; draft 9.1 m.

Type: Cargo ship. MMSI: 311056900.

Date/timePositionNaut miles runAvg speedWind from/ knotsBaromVisibWave heightAir tempDewpointWater temp
2018-Jan-18 13:58N 50°37' W 127°09'1 1.4
2018-Jan-18 13:30N 50°37' W 127°09'4 7.4
2018-Jan-18 12:54N 50°40' W 127°14'512.8
2018-Jan-18 12:28N 50°44' W 127°19'613.0
2018-Jan-18 12:00N 50°49' W 127°26'612.6
2018-Jan-18 11:31N 50°52' W 127°34'612.3
2018-Jan-18 11:00N 50°56' W 127°42'4 8.8
2018-Jan-18 10:30N 50°58' W 127°48'5 9.5
2018-Jan-18 10:00N 50°60' W 127°55'5 9.0
2018-Jan-18 09:29N 51°00' W 128°02'9 7.9
2018-Jan-18 08:21N 50°56' W 128°15'514.9
2018-Jan-18 08:01N 50°54' W 128°22'  
2018-Jan-12 10:24N 38°33' W 123°59'512.7
2018-Jan-12 10:00N 38°29' W 123°57'613.0
2018-Jan-12 09:30N 38°23' W 123°54'713.1
2018-Jan-12 09:00N 38°16' W 123°51'612.9
2018-Jan-12 08:30N 38°10' W 123°48'612.7
2018-Jan-12 08:00N 38°05' W 123°45'612.5
2018-Jan-12 07:30N 37°59' W 123°41'612.2
2018-Jan-12 06:59N 37°53' W 123°38'612.6
2018-Jan-12 06:30N 37°48' W 123°35'712.8
2018-Jan-12 05:58N 37°41' W 123°32'612.9
2018-Jan-12 05:30N 37°36' W 123°29'612.7
2018-Jan-12 05:00N 37°30' W 123°26'612.5
2018-Jan-12 04:30N 37°24' W 123°22'612.6
2018-Jan-12 04:00N 37°19' W 123°18'612.5
2018-Jan-12 03:30N 37°13' W 123°14'612.5
2018-Jan-12 02:59N 37°08' W 123°10'612.5
2018-Jan-12 02:30N 37°03' W 123°06'612.7
2018-Jan-12 02:00N 36°57' W 123°02'612.4
2018-Jan-12 01:30N 36°52' W 122°58'612.5
2018-Jan-12 01:00N 36°47' W 122°54'612.5
2018-Jan-12 00:30N 36°41' W 122°50'712.6
2018-Jan-11 23:58N 36°36' W 122°45'612.6
2018-Jan-11 23:30N 36°30' W 122°42'612.9
2018-Jan-11 23:00N 36°25' W 122°38'713.0
2018-Jan-11 22:29N 36°19' W 122°33'613.0
2018-Jan-11 22:00N 36°14' W 122°30'612.9
2018-Jan-11 21:30N 36°08' W 122°25'612.8
2018-Jan-11 21:00N 36°03' W 122°21'612.9
2018-Jan-11 20:30N 35°57' W 122°17'612.8
2018-Jan-11 20:00N 35°52' W 122°13'612.7
2018-Jan-11 19:30N 35°46' W 122°09'612.6
2018-Jan-11 19:00N 35°41' W 122°05'712.7
2018-Jan-11 18:26N 35°34' W 122°01'513.0
2018-Jan-11 18:00N 35°30' W 121°57'612.9
2018-Jan-11 17:30N 35°24' W 121°53'612.4
2018-Jan-11 17:00N 35°19' W 121°49'712.8
2018-Jan-11 16:28N 35°13' W 121°45'713.2
2018-Jan-11 15:58N 35°07' W 121°41'612.9
2018-Jan-11 15:29N 35°02' W 121°37'613.3
2018-Jan-11 15:00N 34°56' W 121°33'713.7
2018-Jan-11 14:29N 34°50' W 121°29'713.8
2018-Jan-11 13:59N 34°44' W 121°25'713.6
2018-Jan-11 13:30N 34°39' W 121°21'713.4
2018-Jan-11 13:00N 34°33' W 121°16'713.6
2018-Jan-11 12:31N 34°27' W 121°12'713.5
2018-Jan-11 12:00N 34°21' W 121°08'713.3
2018-Jan-11 11:30N 34°16' W 121°04'713.2
2018-Jan-11 11:00N 34°10' W 120°60'613.2
2018-Jan-11 10:31N 34°05' W 120°55'713.1
2018-Jan-11 10:00N 33°59' W 120°51'613.0
2018-Jan-11 09:30N 33°53' W 120°47'712.7
2018-Jan-11 08:58N 33°48' W 120°43'612.7
2018-Jan-11 08:31N 33°43' W 120°39'612.8
2018-Jan-11 08:01N 33°37' W 120°35'712.8
2018-Jan-11 07:30N 33°31' W 120°32'612.8
2018-Jan-11 07:00N 33°26' W 120°28'612.4
2018-Jan-11 06:30N 33°20' W 120°24'612.5
2018-Jan-11 06:00N 33°15' W 120°21'612.7
2018-Jan-11 05:30N 33°10' W 120°17'1312.2
2018-Jan-11 04:24N 32°58' W 120°08'612.0
2018-Jan-11 03:56N 32°53' W 120°05'511.6
2018-Jan-11 03:30N 32°49' W 120°02'  
Track history (hours):
 
Tides and Currents Weather Stations Pressure Air Temp Water Temp Dewpoint Dewpoint Depression Visibility Wind Speed Wind Dir Waves Ship Positions

Csl Tecumseh

Last reported at 2018-Jan-18 13:58 UTC. Time now 2018-Jan-18 14:15 UTC.
Position N 50°37' W 127°09'.

Length 229 m; draft 9.1 m.

Type: Cargo ship. MMSI: 311056900.

Date/timePositionNaut miles runAvg speedWind from/ knotsBaromVisibWave heightAir tempDewpointWater temp
2018-Jan-18 13:58N 50°37' W 127°09'1 1.4
2018-Jan-18 13:30N 50°37' W 127°09'4 7.4
2018-Jan-18 12:54N 50°40' W 127°14'512.8
2018-Jan-18 12:28N 50°44' W 127°19'613.0
2018-Jan-18 12:00N 50°49' W 127°26'612.6
2018-Jan-18 11:31N 50°52' W 127°34'612.3
2018-Jan-18 11:00N 50°56' W 127°42'4 8.8
2018-Jan-18 10:30N 50°58' W 127°48'5 9.5
2018-Jan-18 10:00N 50°60' W 127°55'5 9.0
2018-Jan-18 09:29N 51°00' W 128°02'9 7.9
2018-Jan-18 08:21N 50°56' W 128°15'514.9
2018-Jan-18 08:01N 50°54' W 128°22'  
2018-Jan-12 10:24N 38°33' W 123°59'512.7
2018-Jan-12 10:00N 38°29' W 123°57'613.0
2018-Jan-12 09:30N 38°23' W 123°54'713.1
2018-Jan-12 09:00N 38°16' W 123°51'612.9
2018-Jan-12 08:30N 38°10' W 123°48'612.7
2018-Jan-12 08:00N 38°05' W 123°45'612.5
2018-Jan-12 07:30N 37°59' W 123°41'612.2
2018-Jan-12 06:59N 37°53' W 123°38'612.6
2018-Jan-12 06:30N 37°48' W 123°35'712.8
2018-Jan-12 05:58N 37°41' W 123°32'612.9
2018-Jan-12 05:30N 37°36' W 123°29'612.7
2018-Jan-12 05:00N 37°30' W 123°26'612.5
2018-Jan-12 04:30N 37°24' W 123°22'612.6
2018-Jan-12 04:00N 37°19' W 123°18'612.5
2018-Jan-12 03:30N 37°13' W 123°14'612.5
2018-Jan-12 02:59N 37°08' W 123°10'612.5
2018-Jan-12 02:30N 37°03' W 123°06'612.7
2018-Jan-12 02:00N 36°57' W 123°02'612.4
2018-Jan-12 01:30N 36°52' W 122°58'612.5
2018-Jan-12 01:00N 36°47' W 122°54'612.5
2018-Jan-12 00:30N 36°41' W 122°50'712.6
2018-Jan-11 23:58N 36°36' W 122°45'612.6
2018-Jan-11 23:30N 36°30' W 122°42'612.9
2018-Jan-11 23:00N 36°25' W 122°38'713.0
2018-Jan-11 22:29N 36°19' W 122°33'613.0
2018-Jan-11 22:00N 36°14' W 122°30'612.9
2018-Jan-11 21:30N 36°08' W 122°25'612.8
2018-Jan-11 21:00N 36°03' W 122°21'612.9
2018-Jan-11 20:30N 35°57' W 122°17'612.8
2018-Jan-11 20:00N 35°52' W 122°13'612.7
2018-Jan-11 19:30N 35°46' W 122°09'612.6
2018-Jan-11 19:00N 35°41' W 122°05'712.7
2018-Jan-11 18:26N 35°34' W 122°01'513.0
2018-Jan-11 18:00N 35°30' W 121°57'612.9
2018-Jan-11 17:30N 35°24' W 121°53'612.4
2018-Jan-11 17:00N 35°19' W 121°49'712.8
2018-Jan-11 16:28N 35°13' W 121°45'713.2
2018-Jan-11 15:58N 35°07' W 121°41'612.9
2018-Jan-11 15:29N 35°02' W 121°37'613.3
2018-Jan-11 15:00N 34°56' W 121°33'713.7
2018-Jan-11 14:29N 34°50' W 121°29'713.8
2018-Jan-11 13:59N 34°44' W 121°25'713.6
2018-Jan-11 13:30N 34°39' W 121°21'713.4
2018-Jan-11 13:00N 34°33' W 121°16'713.6
2018-Jan-11 12:31N 34°27' W 121°12'713.5
2018-Jan-11 12:00N 34°21' W 121°08'713.3
2018-Jan-11 11:30N 34°16' W 121°04'713.2
2018-Jan-11 11:00N 34°10' W 120°60'613.2
2018-Jan-11 10:31N 34°05' W 120°55'713.1
2018-Jan-11 10:00N 33°59' W 120°51'613.0
2018-Jan-11 09:30N 33°53' W 120°47'712.7
2018-Jan-11 08:58N 33°48' W 120°43'612.7
2018-Jan-11 08:31N 33°43' W 120°39'612.8
2018-Jan-11 08:01N 33°37' W 120°35'712.8
2018-Jan-11 07:30N 33°31' W 120°32'612.8
2018-Jan-11 07:00N 33°26' W 120°28'612.4
2018-Jan-11 06:30N 33°20' W 120°24'612.5
2018-Jan-11 06:00N 33°15' W 120°21'612.7
2018-Jan-11 05:30N 33°10' W 120°17'1312.2
2018-Jan-11 04:24N 32°58' W 120°08'612.0
2018-Jan-11 03:56N 32°53' W 120°05'511.6
2018-Jan-11 03:30N 32°49' W 120°02'  

Dump ship's entire track history